Jolyn — PJWG — position and weather

sailwx.info

Track history (hours):
 
Tides and Currents Weather Stations Pressure Air Temp Water Temp Dewpoint Dewpoint Depression Visibility Wind Speed Wind Dir Waves Ship Positions

Jolyn

Last reported at 2017-Jan-22 21:33 UTC. Time now 2017-Jan-22 22:29 UTC.
Position N 53°26' E 014°35'.

Length 89 m; draft 5.3 m.

Type: Cargo ship. MMSI: 306813000.

Date/timePositionNaut miles runAvg speedWind from/ knotsBaromVisibWave heightAir tempDewpointWater temp
2017-Jan-22 21:33N 53°26' E 014°35'0 0.0
2017-Jan-22 20:34N 53°26' E 014°35'7 7.1
2017-Jan-22 19:33N 53°33' E 014°36'51 8.2
2017-Jan-22 13:19N 54°19' E 013°58'8 9.8
2017-Jan-22 12:31N 54°26' E 013°51'1111.1
2017-Jan-22 11:33N 54°35' E 013°42'1110.9
2017-Jan-22 10:32N 54°42' E 013°28'1110.9
2017-Jan-22 09:33N 54°42' E 013°10'1110.9
2017-Jan-22 08:33N 54°41' E 012°51'1110.9
2017-Jan-22 07:34N 54°37' E 012°34'1111.0
2017-Jan-22 06:33N 54°31' E 012°17'1010.1
2017-Jan-22 05:33N 54°25' E 012°03'1110.9
2017-Jan-22 04:33N 54°25' E 011°45'1110.7
2017-Jan-22 03:34N 54°30' E 011°28'1110.6
2017-Jan-22 02:34N 54°35' E 011°12'1010.5
2017-Jan-22 01:33N 54°35' E 010°54'1111.3
2017-Jan-22 00:33N 54°33' E 010°34'31 6.1
2017-Jan-21 19:26N 54°21' E 009°45'23 6.0
2017-Jan-21 15:33N 54°03' E 009°18'6 6.4
2017-Jan-21 14:33N 53°57' E 009°14'5 5.2
2017-Jan-21 13:33N 53°53' E 009°09'7 6.5
2017-Jan-21 12:33N 53°51' E 008°58'8 7.6
2017-Jan-21 11:33N 53°51' E 008°46'7 7.0
2017-Jan-21 10:33N 53°57' E 008°39'9 8.7
2017-Jan-21 09:33N 53°59' E 008°24'10 9.9
2017-Jan-21 08:33N 53°59' E 008°08'1110.7
2017-Jan-21 07:34N 53°56' E 007°50'2611.0
2017-Jan-21 05:12N 53°51' E 007°07'811.7
2017-Jan-21 04:33N 53°49' E 006°54'1311.9
2017-Jan-21 03:29N 53°46' E 006°33'1112.2
2017-Jan-21 02:34N 53°43' E 006°15'1312.3
2017-Jan-21 01:31N 53°39' E 005°54'1212.4
2017-Jan-21 00:31N 53°35' E 005°35'4711.6
2017-Jan-20 20:29N 53°07' E 004°32'1111.8
2017-Jan-20 19:34N 52°57' E 004°27'1111.2
2017-Jan-20 18:34N 52°46' E 004°23'1010.4
2017-Jan-20 17:34N 52°35' E 004°22'1010.3
2017-Jan-20 16:33N 52°28' E 004°33'2 1.8
2017-Jan-20 15:32N 52°28' E 004°36'0 0.0
2017-Jan-20 14:29N 52°28' E 004°36'0 0.0
2017-Jan-20 13:32N 52°28' E 004°36'0 0.0
2017-Jan-20 12:32N 52°28' E 004°36'0 0.0
2017-Jan-20 11:32N 52°28' E 004°36'0 0.0
2017-Jan-20 10:32N 52°28' E 004°36'0 0.0
2017-Jan-20 09:32N 52°28' E 004°36'0 0.0
2017-Jan-20 08:32N 52°28' E 004°36'0 0.0
2017-Jan-20 07:32N 52°28' E 004°36'0 0.0
2017-Jan-20 06:29N 52°28' E 004°36'0 0.0
2017-Jan-20 05:26N 52°28' E 004°36'0 0.0
2017-Jan-20 04:32N 52°28' E 004°36'0 0.0
2017-Jan-20 03:26N 52°28' E 004°36'0 0.0
2017-Jan-20 02:32N 52°28' E 004°36'0 0.0
2017-Jan-20 01:32N 52°28' E 004°36'0 0.0
2017-Jan-20 00:32N 52°28' E 004°36'0 0.0
2017-Jan-19 23:32N 52°28' E 004°36'0 0.0
2017-Jan-19 22:32N 52°28' E 004°36'0 0.0
2017-Jan-19 21:32N 52°28' E 004°36'0 0.0
2017-Jan-19 20:32N 52°28' E 004°36'0 0.0
2017-Jan-19 19:29N 52°28' E 004°36'0 0.0
2017-Jan-19 18:32N 52°28' E 004°36'0 0.0
2017-Jan-19 17:32N 52°28' E 004°36'0 0.0
2017-Jan-19 16:32N 52°28' E 004°36'0 0.0
2017-Jan-19 15:32N 52°28' E 004°36'0 0.0
2017-Jan-19 14:32N 52°28' E 004°36'0 0.0
2017-Jan-19 13:29N 52°28' E 004°36'0 0.0
2017-Jan-19 12:29N 52°28' E 004°36'0 0.0
2017-Jan-19 11:32N 52°28' E 004°36'0 0.0
2017-Jan-19 10:32N 52°28' E 004°36'0 0.0
2017-Jan-19 09:32N 52°28' E 004°36'0 0.0
2017-Jan-19 08:29N 52°28' E 004°36'0 0.0
2017-Jan-19 07:32N 52°28' E 004°36'0 0.0
2017-Jan-19 06:29N 52°28' E 004°36'0 0.0
2017-Jan-19 05:32N 52°28' E 004°36'0 0.0
2017-Jan-19 04:32N 52°28' E 004°36'0 0.0
2017-Jan-19 03:32N 52°28' E 004°36'0 0.0
2017-Jan-19 02:32N 52°28' E 004°36'0 0.0
2017-Jan-19 01:32N 52°28' E 004°36'0 0.0
2017-Jan-19 00:32N 52°28' E 004°36'0 0.0
2017-Jan-18 23:29N 52°28' E 004°36'0 0.0
2017-Jan-18 22:32N 52°28' E 004°36'0 0.0
2017-Jan-18 21:32N 52°28' E 004°36'0 0.0
2017-Jan-18 20:32N 52°28' E 004°36'0 0.0
2017-Jan-18 19:29N 52°28' E 004°36'0 0.0
2017-Jan-18 18:29N 52°28' E 004°36'0 0.0
2017-Jan-18 17:33N 52°28' E 004°36'0 0.2
2017-Jan-18 16:32N 52°28' E 004°36'0 0.0
2017-Jan-18 15:32N 52°28' E 004°36'0 0.0
2017-Jan-18 14:32N 52°28' E 004°36'0 0.0
2017-Jan-18 13:32N 52°28' E 004°36'0 0.0
2017-Jan-18 12:32N 52°28' E 004°36'0 0.0
2017-Jan-18 11:32N 52°28' E 004°36'0 0.0
2017-Jan-18 10:32N 52°28' E 004°36'0 0.0
2017-Jan-18 09:32N 52°28' E 004°36'0 0.0
2017-Jan-18 08:32N 52°28' E 004°36'0 0.0
2017-Jan-18 07:29N 52°28' E 004°36'0 0.0
2017-Jan-18 06:32N 52°28' E 004°36'0 0.0
2017-Jan-18 05:32N 52°28' E 004°36'0 0.0
2017-Jan-18 04:32N 52°28' E 004°36'0 0.0
2017-Jan-18 03:32N 52°28' E 004°36'0 0.0
2017-Jan-18 02:32N 52°28' E 004°36'0 0.0
2017-Jan-18 01:32N 52°28' E 004°36'4 3.9
2017-Jan-18 00:33N 52°28' E 004°30'5 5.3
2017-Jan-17 23:34N 52°28' E 004°21'4 4.1
2017-Jan-17 22:33N 52°29' E 004°15'5 4.6
2017-Jan-17 21:34N 52°31' E 004°08'8 7.8
2017-Jan-17 20:34N 52°38' E 004°03'11 9.9
2017-Jan-17 19:30N 52°48' E 003°59'10 9.4
2017-Jan-17 18:25N 52°58' E 004°03'910.4
2017-Jan-17 17:32N 53°04' E 004°15'1111.2
2017-Jan-17 16:33N 53°12' E 004°28'2411.4
2017-Jan-17 14:29N 53°31' E 004°50'1311.7
2017-Jan-17 13:24N 53°36' E 005°10'10111.3
2017-Jan-17 04:29N 54°02' E 007°55'1112.0
2017-Jan-17 03:33N 54°01' E 008°14'1211.5
2017-Jan-17 02:33N 53°58' E 008°33'9 8.6
2017-Jan-17 01:34N 53°52' E 008°43'8 7.6
2017-Jan-17 00:33N 53°51' E 008°56'8 7.9
2017-Jan-16 23:34N 53°54' E 009°09'3 3.0
2017-Jan-16 22:34N 53°56' E 009°12'7 7.3
2017-Jan-16 21:33N 54°02' E 009°18'2 1.6
2017-Jan-16 20:33N 54°04' E 009°19'48 5.9
2017-Jan-16 12:21N 54°32' E 010°25'810.5
2017-Jan-16 11:34N 54°35' E 010°39'1111.1
2017-Jan-16 10:33N 54°36' E 010°58'1211.5
2017-Jan-16 09:34N 54°34' E 011°18'1211.8
2017-Jan-16 08:34N 54°29' E 011°36'1211.8
2017-Jan-16 07:31N 54°27' E 011°57'1010.0
2017-Jan-16 06:33N 54°31' E 012°11'1110.9
2017-Jan-16 05:34N 54°41' E 012°21'5811.5
2017-Jan-16 00:30N 55°03' E 013°54'1010.9
2017-Jan-15 23:33N 55°09' E 014°09'1111.2
2017-Jan-15 22:33N 55°17' E 014°22'1111.1
2017-Jan-15 21:34N 55°26' E 014°34'1111.4
2017-Jan-15 20:33N 55°32' E 014°51'1311.6
2017-Jan-15 19:25N 55°39' E 015°11'28710.6
2017-Jan-14 16:23N 59°49' E 019°37'1011.5
2017-Jan-14 15:33N 59°56' E 019°25'  
Track history (hours):
 
Tides and Currents Weather Stations Pressure Air Temp Water Temp Dewpoint Dewpoint Depression Visibility Wind Speed Wind Dir Waves Ship Positions

Jolyn

Last reported at 2017-Jan-22 21:33 UTC. Time now 2017-Jan-22 22:29 UTC.
Position N 53°26' E 014°35'.

Length 89 m; draft 5.3 m.

Type: Cargo ship. MMSI: 306813000.

Date/timePositionNaut miles runAvg speedWind from/ knotsBaromVisibWave heightAir tempDewpointWater temp
2017-Jan-22 21:33N 53°26' E 014°35'0 0.0
2017-Jan-22 20:34N 53°26' E 014°35'7 7.1
2017-Jan-22 19:33N 53°33' E 014°36'51 8.2
2017-Jan-22 13:19N 54°19' E 013°58'8 9.8
2017-Jan-22 12:31N 54°26' E 013°51'1111.1
2017-Jan-22 11:33N 54°35' E 013°42'1110.9
2017-Jan-22 10:32N 54°42' E 013°28'1110.9
2017-Jan-22 09:33N 54°42' E 013°10'1110.9
2017-Jan-22 08:33N 54°41' E 012°51'1110.9
2017-Jan-22 07:34N 54°37' E 012°34'1111.0
2017-Jan-22 06:33N 54°31' E 012°17'1010.1
2017-Jan-22 05:33N 54°25' E 012°03'1110.9
2017-Jan-22 04:33N 54°25' E 011°45'1110.7
2017-Jan-22 03:34N 54°30' E 011°28'1110.6
2017-Jan-22 02:34N 54°35' E 011°12'1010.5
2017-Jan-22 01:33N 54°35' E 010°54'1111.3
2017-Jan-22 00:33N 54°33' E 010°34'31 6.1
2017-Jan-21 19:26N 54°21' E 009°45'23 6.0
2017-Jan-21 15:33N 54°03' E 009°18'6 6.4
2017-Jan-21 14:33N 53°57' E 009°14'5 5.2
2017-Jan-21 13:33N 53°53' E 009°09'7 6.5
2017-Jan-21 12:33N 53°51' E 008°58'8 7.6
2017-Jan-21 11:33N 53°51' E 008°46'7 7.0
2017-Jan-21 10:33N 53°57' E 008°39'9 8.7
2017-Jan-21 09:33N 53°59' E 008°24'10 9.9
2017-Jan-21 08:33N 53°59' E 008°08'1110.7
2017-Jan-21 07:34N 53°56' E 007°50'2611.0
2017-Jan-21 05:12N 53°51' E 007°07'811.7
2017-Jan-21 04:33N 53°49' E 006°54'1311.9
2017-Jan-21 03:29N 53°46' E 006°33'1112.2
2017-Jan-21 02:34N 53°43' E 006°15'1312.3
2017-Jan-21 01:31N 53°39' E 005°54'1212.4
2017-Jan-21 00:31N 53°35' E 005°35'4711.6
2017-Jan-20 20:29N 53°07' E 004°32'1111.8
2017-Jan-20 19:34N 52°57' E 004°27'1111.2
2017-Jan-20 18:34N 52°46' E 004°23'1010.4
2017-Jan-20 17:34N 52°35' E 004°22'1010.3
2017-Jan-20 16:33N 52°28' E 004°33'2 1.8
2017-Jan-20 15:32N 52°28' E 004°36'0 0.0
2017-Jan-20 14:29N 52°28' E 004°36'0 0.0
2017-Jan-20 13:32N 52°28' E 004°36'0 0.0
2017-Jan-20 12:32N 52°28' E 004°36'0 0.0
2017-Jan-20 11:32N 52°28' E 004°36'0 0.0
2017-Jan-20 10:32N 52°28' E 004°36'0 0.0
2017-Jan-20 09:32N 52°28' E 004°36'0 0.0
2017-Jan-20 08:32N 52°28' E 004°36'0 0.0
2017-Jan-20 07:32N 52°28' E 004°36'0 0.0
2017-Jan-20 06:29N 52°28' E 004°36'0 0.0
2017-Jan-20 05:26N 52°28' E 004°36'0 0.0
2017-Jan-20 04:32N 52°28' E 004°36'0 0.0
2017-Jan-20 03:26N 52°28' E 004°36'0 0.0
2017-Jan-20 02:32N 52°28' E 004°36'0 0.0
2017-Jan-20 01:32N 52°28' E 004°36'0 0.0
2017-Jan-20 00:32N 52°28' E 004°36'0 0.0
2017-Jan-19 23:32N 52°28' E 004°36'0 0.0
2017-Jan-19 22:32N 52°28' E 004°36'0 0.0
2017-Jan-19 21:32N 52°28' E 004°36'0 0.0
2017-Jan-19 20:32N 52°28' E 004°36'0 0.0
2017-Jan-19 19:29N 52°28' E 004°36'0 0.0
2017-Jan-19 18:32N 52°28' E 004°36'0 0.0
2017-Jan-19 17:32N 52°28' E 004°36'0 0.0
2017-Jan-19 16:32N 52°28' E 004°36'0 0.0
2017-Jan-19 15:32N 52°28' E 004°36'0 0.0
2017-Jan-19 14:32N 52°28' E 004°36'0 0.0
2017-Jan-19 13:29N 52°28' E 004°36'0 0.0
2017-Jan-19 12:29N 52°28' E 004°36'0 0.0
2017-Jan-19 11:32N 52°28' E 004°36'0 0.0
2017-Jan-19 10:32N 52°28' E 004°36'0 0.0
2017-Jan-19 09:32N 52°28' E 004°36'0 0.0
2017-Jan-19 08:29N 52°28' E 004°36'0 0.0
2017-Jan-19 07:32N 52°28' E 004°36'0 0.0
2017-Jan-19 06:29N 52°28' E 004°36'0 0.0
2017-Jan-19 05:32N 52°28' E 004°36'0 0.0
2017-Jan-19 04:32N 52°28' E 004°36'0 0.0
2017-Jan-19 03:32N 52°28' E 004°36'0 0.0
2017-Jan-19 02:32N 52°28' E 004°36'0 0.0
2017-Jan-19 01:32N 52°28' E 004°36'0 0.0
2017-Jan-19 00:32N 52°28' E 004°36'0 0.0
2017-Jan-18 23:29N 52°28' E 004°36'0 0.0
2017-Jan-18 22:32N 52°28' E 004°36'0 0.0
2017-Jan-18 21:32N 52°28' E 004°36'0 0.0
2017-Jan-18 20:32N 52°28' E 004°36'0 0.0
2017-Jan-18 19:29N 52°28' E 004°36'0 0.0
2017-Jan-18 18:29N 52°28' E 004°36'0 0.0
2017-Jan-18 17:33N 52°28' E 004°36'0 0.2
2017-Jan-18 16:32N 52°28' E 004°36'0 0.0
2017-Jan-18 15:32N 52°28' E 004°36'0 0.0
2017-Jan-18 14:32N 52°28' E 004°36'0 0.0
2017-Jan-18 13:32N 52°28' E 004°36'0 0.0
2017-Jan-18 12:32N 52°28' E 004°36'0 0.0
2017-Jan-18 11:32N 52°28' E 004°36'0 0.0
2017-Jan-18 10:32N 52°28' E 004°36'0 0.0
2017-Jan-18 09:32N 52°28' E 004°36'0 0.0
2017-Jan-18 08:32N 52°28' E 004°36'0 0.0
2017-Jan-18 07:29N 52°28' E 004°36'0 0.0
2017-Jan-18 06:32N 52°28' E 004°36'0 0.0
2017-Jan-18 05:32N 52°28' E 004°36'0 0.0
2017-Jan-18 04:32N 52°28' E 004°36'0 0.0
2017-Jan-18 03:32N 52°28' E 004°36'0 0.0
2017-Jan-18 02:32N 52°28' E 004°36'0 0.0
2017-Jan-18 01:32N 52°28' E 004°36'4 3.9
2017-Jan-18 00:33N 52°28' E 004°30'5 5.3
2017-Jan-17 23:34N 52°28' E 004°21'4 4.1
2017-Jan-17 22:33N 52°29' E 004°15'5 4.6
2017-Jan-17 21:34N 52°31' E 004°08'8 7.8
2017-Jan-17 20:34N 52°38' E 004°03'11 9.9
2017-Jan-17 19:30N 52°48' E 003°59'10 9.4
2017-Jan-17 18:25N 52°58' E 004°03'910.4
2017-Jan-17 17:32N 53°04' E 004°15'1111.2
2017-Jan-17 16:33N 53°12' E 004°28'2411.4
2017-Jan-17 14:29N 53°31' E 004°50'1311.7
2017-Jan-17 13:24N 53°36' E 005°10'10111.3
2017-Jan-17 04:29N 54°02' E 007°55'1112.0
2017-Jan-17 03:33N 54°01' E 008°14'1211.5
2017-Jan-17 02:33N 53°58' E 008°33'9 8.6
2017-Jan-17 01:34N 53°52' E 008°43'8 7.6
2017-Jan-17 00:33N 53°51' E 008°56'8 7.9
2017-Jan-16 23:34N 53°54' E 009°09'3 3.0
2017-Jan-16 22:34N 53°56' E 009°12'7 7.3
2017-Jan-16 21:33N 54°02' E 009°18'2 1.6
2017-Jan-16 20:33N 54°04' E 009°19'48 5.9
2017-Jan-16 12:21N 54°32' E 010°25'810.5
2017-Jan-16 11:34N 54°35' E 010°39'1111.1
2017-Jan-16 10:33N 54°36' E 010°58'1211.5
2017-Jan-16 09:34N 54°34' E 011°18'1211.8
2017-Jan-16 08:34N 54°29' E 011°36'1211.8
2017-Jan-16 07:31N 54°27' E 011°57'1010.0
2017-Jan-16 06:33N 54°31' E 012°11'1110.9
2017-Jan-16 05:34N 54°41' E 012°21'5811.5
2017-Jan-16 00:30N 55°03' E 013°54'1010.9
2017-Jan-15 23:33N 55°09' E 014°09'1111.2
2017-Jan-15 22:33N 55°17' E 014°22'1111.1
2017-Jan-15 21:34N 55°26' E 014°34'1111.4
2017-Jan-15 20:33N 55°32' E 014°51'1311.6
2017-Jan-15 19:25N 55°39' E 015°11'28710.6
2017-Jan-14 16:23N 59°49' E 019°37'1011.5
2017-Jan-14 15:33N 59°56' E 019°25'  

Dump ship's entire track history